sensor_id;sensor_type;location;lat;lon;timestamp;pressure;altitude;pressure_sealevel;temperature;humidity
60417;BME280;46263;44.726;10.396;2024-03-22T00:01:39;101001.22;;;16.87;83.55
60417;BME280;46263;44.726;10.396;2024-03-22T00:04:05;101007.84;;;16.89;83.54
60417;BME280;46263;44.726;10.396;2024-03-22T00:06:30;101006.31;;;16.88;83.00
60417;BME280;46263;44.726;10.396;2024-03-22T00:08:56;101012.63;;;16.94;83.42
60417;BME280;46263;44.726;10.396;2024-03-22T00:11:21;101006.47;;;16.83;82.38
60417;BME280;46263;44.726;10.396;2024-03-22T00:13:47;101012.47;;;16.79;83.26
60417;BME280;46263;44.726;10.396;2024-03-22T00:16:12;101011.69;;;16.79;82.98
60417;BME280;46263;44.726;10.396;2024-03-22T00:18:37;101013.56;;;16.77;82.97
60417;BME280;46263;44.726;10.396;2024-03-22T00:21:03;101006.13;;;16.66;83.12
60417;BME280;46263;44.726;10.396;2024-03-22T00:23:29;101004.66;;;16.52;85.12
60417;BME280;46263;44.726;10.396;2024-03-22T00:25:55;101007.41;;;16.45;84.60
60417;BME280;46263;44.726;10.396;2024-03-22T00:28:21;101002.44;;;16.38;85.01
60417;BME280;46263;44.726;10.396;2024-03-22T00:30:47;101003.97;;;16.26;85.42
60417;BME280;46263;44.726;10.396;2024-03-22T00:33:12;101007.00;;;16.28;84.99
60417;BME280;46263;44.726;10.396;2024-03-22T00:35:38;100998.31;;;16.26;83.97
60417;BME280;46263;44.726;10.396;2024-03-22T00:38:03;101009.28;;;16.29;83.73
60417;BME280;46263;44.726;10.396;2024-03-22T00:40:28;101000.59;;;16.27;83.06
60417;BME280;46263;44.726;10.396;2024-03-22T00:42:54;100985.56;;;16.12;83.82
60417;BME280;46263;44.726;10.396;2024-03-22T00:45:19;100987.19;;;16.07;84.48
60417;BME280;46263;44.726;10.396;2024-03-22T00:47:45;100993.69;;;16.15;84.95
60417;BME280;46263;44.726;10.396;2024-03-22T00:50:10;100989.97;;;16.20;84.25
60417;BME280;46263;44.726;10.396;2024-03-22T00:52:36;100990.06;;;16.28;82.96
60417;BME280;46263;44.726;10.396;2024-03-22T00:55:01;100991.16;;;16.25;82.11
60417;BME280;46263;44.726;10.396;2024-03-22T00:57:27;100983.16;;;16.16;81.89
60417;BME280;46263;44.726;10.396;2024-03-22T00:59:52;100989.00;;;16.18;82.27
60417;BME280;46263;44.726;10.396;2024-03-22T01:02:18;100992.50;;;16.11;82.06
60417;BME280;46263;44.726;10.396;2024-03-22T01:04:43;100992.09;;;15.94;83.65
60417;BME280;46263;44.726;10.396;2024-03-22T01:07:09;100986.50;;;15.81;84.30
60417;BME280;46263;44.726;10.396;2024-03-22T01:09:35;100994.50;;;15.77;84.54
60417;BME280;46263;44.726;10.396;2024-03-22T01:12:00;100996.34;;;15.88;84.30
60417;BME280;46263;44.726;10.396;2024-03-22T01:14:25;100990.38;;;15.91;84.24
60417;BME280;46263;44.726;10.396;2024-03-22T01:16:51;100995.50;;;15.67;86.34
60417;BME280;46263;44.726;10.396;2024-03-22T01:19:17;100987.81;;;15.41;87.75
60417;BME280;46263;44.726;10.396;2024-03-22T01:21:42;100984.66;;;15.58;87.81
60417;BME280;46263;44.726;10.396;2024-03-22T01:24:07;100981.06;;;15.70;86.89
60417;BME280;46263;44.726;10.396;2024-03-22T01:26:33;100968.91;;;15.75;85.89
60417;BME280;46263;44.726;10.396;2024-03-22T01:28:58;100986.91;;;15.85;84.89
60417;BME280;46263;44.726;10.396;2024-03-22T01:31:24;100987.97;;;15.95;83.15
60417;BME280;46263;44.726;10.396;2024-03-22T01:33:49;100980.59;;;15.92;83.08
60417;BME280;46263;44.726;10.396;2024-03-22T01:36:15;100995.91;;;15.84;83.13
60417;BME280;46263;44.726;10.396;2024-03-22T01:38:40;100991.81;;;15.85;82.89
60417;BME280;46263;44.726;10.396;2024-03-22T01:41:06;100991.69;;;15.90;82.93
60417;BME280;46263;44.726;10.396;2024-03-22T01:43:32;100998.63;;;15.89;82.51
60417;BME280;46263;44.726;10.396;2024-03-22T01:45:57;100991.16;;;15.79;82.77
60417;BME280;46263;44.726;10.396;2024-03-22T01:48:23;100994.63;;;15.85;82.00
60417;BME280;46263;44.726;10.396;2024-03-22T01:50:50;100987.91;;;15.75;82.05
60417;BME280;46263;44.726;10.396;2024-03-22T01:53:16;100986.16;;;15.72;82.35
60417;BME280;46263;44.726;10.396;2024-03-22T01:55:42;100994.09;;;15.73;82.39
60417;BME280;46263;44.726;10.396;2024-03-22T01:58:08;100992.13;;;15.68;82.17
60417;BME280;46263;44.726;10.396;2024-03-22T02:00:34;100985.19;;;15.69;82.75
60417;BME280;46263;44.726;10.396;2024-03-22T02:02:59;100988.00;;;15.69;83.04
60417;BME280;46263;44.726;10.396;2024-03-22T02:05:25;100986.94;;;15.59;83.36
60417;BME280;46263;44.726;10.396;2024-03-22T02:07:50;100986.63;;;15.63;83.11
60417;BME280;46263;44.726;10.396;2024-03-22T02:10:17;100991.06;;;15.58;83.33
60417;BME280;46263;44.726;10.396;2024-03-22T02:12:42;100985.72;;;15.55;83.46
60417;BME280;46263;44.726;10.396;2024-03-22T02:15:08;100983.69;;;15.55;82.72
60417;BME280;46263;44.726;10.396;2024-03-22T02:17:35;100993.13;;;15.45;82.95
60417;BME280;46263;44.726;10.396;2024-03-22T02:20:01;100986.53;;;15.42;82.70
60417;BME280;46263;44.726;10.396;2024-03-22T02:22:28;100987.38;;;15.37;83.86
60417;BME280;46263;44.726;10.396;2024-03-22T02:24:54;100982.06;;;15.34;83.54
60417;BME280;46263;44.726;10.396;2024-03-22T02:27:19;100986.25;;;15.14;84.71
60417;BME280;46263;44.726;10.396;2024-03-22T02:29:45;100989.38;;;14.98;85.49
60417;BME280;46263;44.726;10.396;2024-03-22T02:32:10;100985.88;;;14.92;84.94
60417;BME280;46263;44.726;10.396;2024-03-22T02:34:36;100981.81;;;14.75;86.78
60417;BME280;46263;44.726;10.396;2024-03-22T02:37:01;100985.19;;;14.73;87.78
60417;BME280;46263;44.726;10.396;2024-03-22T02:39:27;100985.31;;;14.81;88.54
60417;BME280;46263;44.726;10.396;2024-03-22T02:41:54;100991.81;;;14.89;87.15
60417;BME280;46263;44.726;10.396;2024-03-22T02:44:19;100995.09;;;14.93;86.96
60417;BME280;46263;44.726;10.396;2024-03-22T02:46:45;101001.38;;;14.99;86.83
60417;BME280;46263;44.726;10.396;2024-03-22T02:49:10;100992.84;;;15.04;84.59
60417;BME280;46263;44.726;10.396;2024-03-22T02:51:36;100995.09;;;15.06;83.05
60417;BME280;46263;44.726;10.396;2024-03-22T02:54:01;100992.53;;;15.20;82.44
60417;BME280;46263;44.726;10.396;2024-03-22T02:56:27;100999.66;;;15.09;83.37
60417;BME280;46263;44.726;10.396;2024-03-22T02:58:53;101001.50;;;15.06;83.73
60417;BME280;46263;44.726;10.396;2024-03-22T03:01:18;100987.75;;;15.15;83.52
60417;BME280;46263;44.726;10.396;2024-03-22T03:03:44;100991.22;;;15.21;83.33
60417;BME280;46263;44.726;10.396;2024-03-22T03:06:09;100982.78;;;15.21;83.01
60417;BME280;46263;44.726;10.396;2024-03-22T03:08:38;100989.19;;;15.22;83.22
60417;BME280;46263;44.726;10.396;2024-03-22T03:11:03;100982.56;;;15.19;83.07
60417;BME280;46263;44.726;10.396;2024-03-22T03:13:29;100985.38;;;15.19;83.07
60417;BME280;46263;44.726;10.396;2024-03-22T03:15:54;100986.25;;;15.14;83.23
60417;BME280;46263;44.726;10.396;2024-03-22T03:18:20;100977.56;;;15.13;83.08
60417;BME280;46263;44.726;10.396;2024-03-22T03:20:45;100990.84;;;14.99;82.77
60417;BME280;46263;44.726;10.396;2024-03-22T03:23:10;100987.06;;;14.97;83.43
60417;BME280;46263;44.726;10.396;2024-03-22T03:25:36;100991.41;;;14.98;83.49
60417;BME280;46263;44.726;10.396;2024-03-22T03:28:01;100989.13;;;14.96;83.72
60417;BME280;46263;44.726;10.396;2024-03-22T03:30:27;100994.84;;;14.91;84.16
60417;BME280;46263;44.726;10.396;2024-03-22T03:32:52;100992.47;;;14.95;84.22
60417;BME280;46263;44.726;10.396;2024-03-22T03:35:18;100989.66;;;14.95;83.98
60417;BME280;46263;44.726;10.396;2024-03-22T03:37:43;101002.66;;;14.98;83.64
60417;BME280;46263;44.726;10.396;2024-03-22T03:40:09;100999.84;;;14.98;83.83
60417;BME280;46263;44.726;10.396;2024-03-22T03:42:34;100995.09;;;14.93;83.82
60417;BME280;46263;44.726;10.396;2024-03-22T03:45:00;100998.06;;;14.82;84.91
60417;BME280;46263;44.726;10.396;2024-03-22T03:47:25;101002.19;;;14.81;84.80
60417;BME280;46263;44.726;10.396;2024-03-22T03:49:51;101004.34;;;14.75;85.47
60417;BME280;46263;44.726;10.396;2024-03-22T03:52:17;101010.91;;;14.64;84.22
60417;BME280;46263;44.726;10.396;2024-03-22T03:54:43;101011.34;;;14.68;83.36
60417;BME280;46263;44.726;10.396;2024-03-22T03:57:08;101009.91;;;14.62;83.60
60417;BME280;46263;44.726;10.396;2024-03-22T03:59:34;101007.47;;;14.71;84.10
60417;BME280;46263;44.726;10.396;2024-03-22T04:01:59;101001.59;;;14.69;83.32
60417;BME280;46263;44.726;10.396;2024-03-22T04:04:25;101016.03;;;14.79;82.83
60417;BME280;46263;44.726;10.396;2024-03-22T04:06:50;100996.56;;;14.81;82.63
60417;BME280;46263;44.726;10.396;2024-03-22T04:09:15;100994.28;;;14.79;82.93
60417;BME280;46263;44.726;10.396;2024-03-22T04:11:41;100993.66;;;14.86;82.76
60417;BME280;46263;44.726;10.396;2024-03-22T04:14:06;101002.97;;;14.81;82.95
60417;BME280;46263;44.726;10.396;2024-03-22T04:16:32;101006.97;;;14.54;83.91
60417;BME280;46263;44.726;10.396;2024-03-22T04:18:57;101003.88;;;14.39;84.14
60417;BME280;46263;44.726;10.396;2024-03-22T04:21:23;101005.16;;;14.38;84.75
60417;BME280;46263;44.726;10.396;2024-03-22T04:23:48;101001.81;;;14.40;84.37
60417;BME280;46263;44.726;10.396;2024-03-22T04:26:14;101005.28;;;14.46;83.95
60417;BME280;46263;44.726;10.396;2024-03-22T04:28:40;101002.72;;;14.48;83.88
60417;BME280;46263;44.726;10.396;2024-03-22T04:31:07;100995.94;;;14.38;84.65
60417;BME280;46263;44.726;10.396;2024-03-22T04:33:34;100995.94;;;14.38;85.39
60417;BME280;46263;44.726;10.396;2024-03-22T04:36:00;100997.84;;;14.48;84.64
60417;BME280;46263;44.726;10.396;2024-03-22T04:38:27;101002.22;;;14.62;84.32
60417;BME280;46263;44.726;10.396;2024-03-22T04:40:54;101004.38;;;14.56;84.45
60417;BME280;46263;44.726;10.396;2024-03-22T04:43:19;101000.84;;;14.69;83.89
60417;BME280;46263;44.726;10.396;2024-03-22T04:45:46;100997.16;;;14.61;83.79
60417;BME280;46263;44.726;10.396;2024-03-22T04:48:17;100999.19;;;14.60;83.81
60417;BME280;46263;44.726;10.396;2024-03-22T04:50:42;100999.97;;;14.42;83.98
60417;BME280;46263;44.726;10.396;2024-03-22T04:53:08;101005.16;;;14.38;84.00
60417;BME280;46263;44.726;10.396;2024-03-22T04:55:34;100999.03;;;14.22;84.42
60417;BME280;46263;44.726;10.396;2024-03-22T04:57:59;100998.94;;;14.09;85.41
60417;BME280;46263;44.726;10.396;2024-03-22T05:00:25;101001.34;;;14.18;84.82
60417;BME280;46263;44.726;10.396;2024-03-22T05:02:53;101005.38;;;14.22;84.88
60417;BME280;46263;44.726;10.396;2024-03-22T05:05:20;101004.28;;;14.12;85.22
60417;BME280;46263;44.726;10.396;2024-03-22T05:07:45;101005.69;;;14.19;84.93
60417;BME280;46263;44.726;10.396;2024-03-22T05:10:11;101005.00;;;14.31;84.83
60417;BME280;46263;44.726;10.396;2024-03-22T05:12:37;101010.81;;;14.20;85.24
60417;BME280;46263;44.726;10.396;2024-03-22T05:15:03;101008.31;;;14.17;85.31
60417;BME280;46263;44.726;10.396;2024-03-22T05:17:29;101011.84;;;13.99;86.33
60417;BME280;46263;44.726;10.396;2024-03-22T05:20:00;101015.31;;;13.86;87.59
60417;BME280;46263;44.726;10.396;2024-03-22T05:22:25;101009.84;;;13.94;88.03
60417;BME280;46263;44.726;10.396;2024-03-22T05:24:51;101011.28;;;14.00;88.29
60417;BME280;46263;44.726;10.396;2024-03-22T05:27:17;101005.56;;;14.11;87.09
60417;BME280;46263;44.726;10.396;2024-03-22T05:29:43;101013.16;;;14.16;86.68
60417;BME280;46263;44.726;10.396;2024-03-22T05:32:08;101016.81;;;14.11;86.93
60417;BME280;46263;44.726;10.396;2024-03-22T05:34:33;101018.69;;;14.22;86.80
60417;BME280;46263;44.726;10.396;2024-03-22T05:37:01;101015.41;;;14.18;87.31
60417;BME280;46263;44.726;10.396;2024-03-22T05:39:26;101021.44;;;14.27;86.58
60417;BME280;46263;44.726;10.396;2024-03-22T05:41:52;101018.88;;;14.29;86.71
60417;BME280;46263;44.726;10.396;2024-03-22T05:44:18;101019.47;;;14.40;86.25
60417;BME280;46263;44.726;10.396;2024-03-22T05:46:43;101024.78;;;14.44;86.12
60417;BME280;46263;44.726;10.396;2024-03-22T05:49:09;101034.94;;;14.47;86.04
60417;BME280;46263;44.726;10.396;2024-03-22T05:51:34;101025.44;;;14.50;86.10
60417;BME280;46263;44.726;10.396;2024-03-22T05:53:59;101027.44;;;14.36;86.23
60417;BME280;46263;44.726;10.396;2024-03-22T05:56:25;101023.47;;;14.45;85.90
60417;BME280;46263;44.726;10.396;2024-03-22T05:58:50;101029.16;;;14.58;85.74
60417;BME280;46263;44.726;10.396;2024-03-22T06:01:16;101021.25;;;14.56;85.33
60417;BME280;46263;44.726;10.396;2024-03-22T06:03:41;101017.44;;;14.72;84.09
60417;BME280;46263;44.726;10.396;2024-03-22T06:06:07;101016.53;;;14.64;84.42
60417;BME280;46263;44.726;10.396;2024-03-22T06:08:33;101019.81;;;14.50;85.65
60417;BME280;46263;44.726;10.396;2024-03-22T06:11:00;101028.88;;;14.43;86.43
60417;BME280;46263;44.726;10.396;2024-03-22T06:13:26;101024.00;;;14.07;89.60
60417;BME280;46263;44.726;10.396;2024-03-22T06:15:51;101030.84;;;14.11;88.63
60417;BME280;46263;44.726;10.396;2024-03-22T06:18:17;101036.88;;;13.97;89.31
60417;BME280;46263;44.726;10.396;2024-03-22T06:20:43;101035.94;;;13.70;90.61
60417;BME280;46263;44.726;10.396;2024-03-22T06:23:08;101039.91;;;13.80;90.49
60417;BME280;46263;44.726;10.396;2024-03-22T06:25:34;101042.19;;;13.82;91.42
60417;BME280;46263;44.726;10.396;2024-03-22T06:28:00;101042.59;;;13.67;91.83
60417;BME280;46263;44.726;10.396;2024-03-22T06:30:25;101059.97;;;13.90;91.08
60417;BME280;46263;44.726;10.396;2024-03-22T06:32:52;101053.00;;;13.96;90.42
60417;BME280;46263;44.726;10.396;2024-03-22T06:35:18;101056.47;;;14.26;88.86
60417;BME280;46263;44.726;10.396;2024-03-22T06:37:43;101053.16;;;14.04;89.52
60417;BME280;46263;44.726;10.396;2024-03-22T06:40:09;101063.31;;;14.12;89.95
60417;BME280;46263;44.726;10.396;2024-03-22T06:42:35;101064.53;;;14.17;90.52
60417;BME280;46263;44.726;10.396;2024-03-22T06:45:01;101063.75;;;14.34;89.90
60417;BME280;46263;44.726;10.396;2024-03-22T06:47:27;101064.06;;;14.31;90.21
60417;BME280;46263;44.726;10.396;2024-03-22T06:49:52;101069.00;;;14.25;90.80
60417;BME280;46263;44.726;10.396;2024-03-22T06:52:18;101068.84;;;14.18;91.66
60417;BME280;46263;44.726;10.396;2024-03-22T06:54:44;101066.06;;;14.36;90.70
60417;BME280;46263;44.726;10.396;2024-03-22T06:57:10;101066.34;;;14.51;90.17
60417;BME280;46263;44.726;10.396;2024-03-22T06:59:37;101059.47;;;14.65;90.62
60417;BME280;46263;44.726;10.396;2024-03-22T07:02:02;101064.09;;;14.81;91.21
60417;BME280;46263;44.726;10.396;2024-03-22T07:04:28;101068.63;;;15.02;89.48
60417;BME280;46263;44.726;10.396;2024-03-22T07:06:53;101069.38;;;15.03;90.56
60417;BME280;46263;44.726;10.396;2024-03-22T07:09:19;101072.50;;;15.30;87.66
60417;BME280;46263;44.726;10.396;2024-03-22T07:11:44;101067.03;;;15.19;89.11
60417;BME280;46263;44.726;10.396;2024-03-22T07:14:09;101077.59;;;15.01;89.31
60417;BME280;46263;44.726;10.396;2024-03-22T07:16:35;101073.72;;;15.35;91.43
60417;BME280;46263;44.726;10.396;2024-03-22T07:19:02;101076.13;;;15.57;90.16
60417;BME280;46263;44.726;10.396;2024-03-22T07:21:29;101078.63;;;15.60;89.27
60417;BME280;46263;44.726;10.396;2024-03-22T07:23:54;101089.06;;;15.65;90.02
60417;BME280;46263;44.726;10.396;2024-03-22T07:26:19;101082.53;;;15.83;89.39
60417;BME280;46263;44.726;10.396;2024-03-22T07:28:45;101094.91;;;16.06;88.28
60417;BME280;46263;44.726;10.396;2024-03-22T07:31:10;101093.94;;;16.16;86.57
60417;BME280;46263;44.726;10.396;2024-03-22T07:33:36;101094.88;;;16.19;85.96
60417;BME280;46263;44.726;10.396;2024-03-22T07:36:02;101088.63;;;16.13;86.53
60417;BME280;46263;44.726;10.396;2024-03-22T07:38:28;101096.41;;;16.20;85.19
60417;BME280;46263;44.726;10.396;2024-03-22T07:40:53;101093.25;;;16.36;84.85
60417;BME280;46263;44.726;10.396;2024-03-22T07:43:19;101093.81;;;16.22;86.09
60417;BME280;46263;44.726;10.396;2024-03-22T07:45:44;101103.34;;;16.19;87.08
60417;BME280;46263;44.726;10.396;2024-03-22T07:48:10;101098.34;;;16.25;86.57
60417;BME280;46263;44.726;10.396;2024-03-22T07:50:36;101105.31;;;16.37;85.88
60417;BME280;46263;44.726;10.396;2024-03-22T07:53:01;101100.53;;;16.45;85.67
60417;BME280;46263;44.726;10.396;2024-03-22T07:55:27;101099.47;;;16.22;86.96
60417;BME280;46263;44.726;10.396;2024-03-22T07:57:52;101096.84;;;16.37;87.49
60417;BME280;46263;44.726;10.396;2024-03-22T08:00:18;101090.94;;;16.61;86.49
60417;BME280;46263;44.726;10.396;2024-03-22T08:02:43;101094.59;;;16.69;86.63
60417;BME280;46263;44.726;10.396;2024-03-22T08:05:09;101092.63;;;16.77;86.28
60417;BME280;46263;44.726;10.396;2024-03-22T08:07:34;101087.72;;;16.77;86.22
60417;BME280;46263;44.726;10.396;2024-03-22T08:10:00;101092.34;;;16.67;87.66
60417;BME280;46263;44.726;10.396;2024-03-22T08:12:27;101087.47;;;16.55;87.25
60417;BME280;46263;44.726;10.396;2024-03-22T08:14:53;101095.44;;;16.77;87.08
60417;BME280;46263;44.726;10.396;2024-03-22T08:17:18;101093.94;;;16.96;86.04
60417;BME280;46263;44.726;10.396;2024-03-22T08:19:43;101099.69;;;17.03;85.22
60417;BME280;46263;44.726;10.396;2024-03-22T08:22:10;101090.06;;;17.19;84.65
60417;BME280;46263;44.726;10.396;2024-03-22T08:24:35;101092.00;;;16.71;88.06
60417;BME280;46263;44.726;10.396;2024-03-22T08:27:01;101088.06;;;16.74;89.27
60417;BME280;46263;44.726;10.396;2024-03-22T08:29:26;101084.75;;;16.95;88.29
60417;BME280;46263;44.726;10.396;2024-03-22T08:31:52;101086.81;;;16.62;89.66
60417;BME280;46263;44.726;10.396;2024-03-22T08:34:18;101087.38;;;16.80;89.00
60417;BME280;46263;44.726;10.396;2024-03-22T08:36:43;101092.22;;;17.13;88.23
60417;BME280;46263;44.726;10.396;2024-03-22T08:39:09;101093.59;;;16.99;88.09
60417;BME280;46263;44.726;10.396;2024-03-22T08:41:37;101094.41;;;17.20;86.80
60417;BME280;46263;44.726;10.396;2024-03-22T08:44:02;101095.16;;;17.41;86.41
60417;BME280;46263;44.726;10.396;2024-03-22T08:46:28;101101.06;;;17.51;86.22
60417;BME280;46263;44.726;10.396;2024-03-22T08:48:53;101097.38;;;17.35;86.13
60417;BME280;46263;44.726;10.396;2024-03-22T08:51:19;101093.63;;;17.40;86.51
60417;BME280;46263;44.726;10.396;2024-03-22T08:53:44;101100.84;;;17.49;87.45
60417;BME280;46263;44.726;10.396;2024-03-22T08:56:10;101095.78;;;17.47;88.41
60417;BME280;46263;44.726;10.396;2024-03-22T08:58:36;101096.91;;;17.44;87.31
60417;BME280;46263;44.726;10.396;2024-03-22T09:01:01;101093.47;;;17.66;86.45
60417;BME280;46263;44.726;10.396;2024-03-22T09:03:27;101100.16;;;17.76;86.06
60417;BME280;46263;44.726;10.396;2024-03-22T09:05:53;101100.09;;;17.96;85.73
60417;BME280;46263;44.726;10.396;2024-03-22T09:08:20;101104.31;;;18.10;86.56
60417;BME280;46263;44.726;10.396;2024-03-22T09:10:47;101103.28;;;18.21;83.83
60417;BME280;46263;44.726;10.396;2024-03-22T09:13:12;101088.59;;;18.30;83.81
60417;BME280;46263;44.726;10.396;2024-03-22T09:15:38;101099.47;;;18.18;83.47
60417;BME280;46263;44.726;10.396;2024-03-22T09:18:04;101096.88;;;18.28;83.37
60417;BME280;46263;44.726;10.396;2024-03-22T09:20:30;101086.34;;;18.36;83.39
60417;BME280;46263;44.726;10.396;2024-03-22T09:22:55;101086.78;;;18.40;82.25
60417;BME280;46263;44.726;10.396;2024-03-22T09:25:23;101092.66;;;18.49;81.76
60417;BME280;46263;44.726;10.396;2024-03-22T09:27:48;101094.91;;;18.50;82.61
60417;BME280;46263;44.726;10.396;2024-03-22T09:30:14;101091.72;;;18.54;82.04
60417;BME280;46263;44.726;10.396;2024-03-22T09:32:40;101088.19;;;18.61;82.30
60417;BME280;46263;44.726;10.396;2024-03-22T09:35:06;101094.38;;;18.52;81.74
60417;BME280;46263;44.726;10.396;2024-03-22T09:37:31;101085.13;;;18.59;81.81
60417;BME280;46263;44.726;10.396;2024-03-22T09:39:58;101086.50;;;18.73;82.71
60417;BME280;46263;44.726;10.396;2024-03-22T09:42:25;101080.41;;;18.61;82.17
60417;BME280;46263;44.726;10.396;2024-03-22T09:44:51;101075.53;;;18.69;83.30
60417;BME280;46263;44.726;10.396;2024-03-22T09:47:17;101077.44;;;18.74;83.05
60417;BME280;46263;44.726;10.396;2024-03-22T09:49:44;101073.28;;;18.75;81.39
60417;BME280;46263;44.726;10.396;2024-03-22T09:52:15;101075.16;;;18.73;82.32
60417;BME280;46263;44.726;10.396;2024-03-22T09:54:44;101075.94;;;18.81;82.88
60417;BME280;46263;44.726;10.396;2024-03-22T09:57:20;101069.91;;;18.84;81.04
60417;BME280;46263;44.726;10.396;2024-03-22T09:59:46;101073.72;;;18.94;78.41
60417;BME280;46263;44.726;10.396;2024-03-22T10:02:13;101058.59;;;18.92;78.03
60417;BME280;46263;44.726;10.396;2024-03-22T10:04:40;101063.72;;;19.01;77.71
60417;BME280;46263;44.726;10.396;2024-03-22T10:07:05;101065.81;;;19.08;77.13
60417;BME280;46263;44.726;10.396;2024-03-22T10:09:32;101061.66;;;19.16;76.18
60417;BME280;46263;44.726;10.396;2024-03-22T10:11:58;101059.97;;;19.21;76.51
60417;BME280;46263;44.726;10.396;2024-03-22T10:14:23;101056.94;;;19.11;77.08
60417;BME280;46263;44.726;10.396;2024-03-22T10:16:52;101054.13;;;19.11;76.16
60417;BME280;46263;44.726;10.396;2024-03-22T10:19:20;101052.63;;;19.18;75.72
60417;BME280;46263;44.726;10.396;2024-03-22T10:21:45;101044.09;;;19.10;74.88
60417;BME280;46263;44.726;10.396;2024-03-22T10:24:11;101050.91;;;19.22;77.33
60417;BME280;46263;44.726;10.396;2024-03-22T10:26:36;101036.94;;;19.31;75.00
60417;BME280;46263;44.726;10.396;2024-03-22T10:29:06;101044.66;;;19.38;73.55
60417;BME280;46263;44.726;10.396;2024-03-22T10:31:31;101036.75;;;19.37;72.32
60417;BME280;46263;44.726;10.396;2024-03-22T10:34:01;101032.59;;;19.38;72.30
60417;BME280;46263;44.726;10.396;2024-03-22T10:36:29;101030.31;;;19.44;72.79
60417;BME280;46263;44.726;10.396;2024-03-22T10:38:56;101023.31;;;19.45;74.71
60417;BME280;46263;44.726;10.396;2024-03-22T10:41:23;101031.63;;;19.50;73.77
60417;BME280;46263;44.726;10.396;2024-03-22T10:43:48;101020.47;;;19.37;73.83
60417;BME280;46263;44.726;10.396;2024-03-22T10:46:14;101029.75;;;19.38;73.81
60417;BME280;46263;44.726;10.396;2024-03-22T10:48:41;101023.47;;;19.47;73.23
60417;BME280;46263;44.726;10.396;2024-03-22T10:51:09;101020.09;;;19.48;74.46
60417;BME280;46263;44.726;10.396;2024-03-22T10:53:35;101020.06;;;19.56;76.52
60417;BME280;46263;44.726;10.396;2024-03-22T10:56:02;101015.50;;;19.60;78.32
60417;BME280;46263;44.726;10.396;2024-03-22T10:58:29;101008.31;;;19.67;77.25
60417;BME280;46263;44.726;10.396;2024-03-22T11:00:56;100998.84;;;19.72;76.14
60417;BME280;46263;44.726;10.396;2024-03-22T11:03:23;100994.72;;;19.58;74.84
60417;BME280;46263;44.726;10.396;2024-03-22T11:05:50;100994.88;;;19.75;76.06
60417;BME280;46263;44.726;10.396;2024-03-22T11:08:26;100986.75;;;19.79;75.04
60417;BME280;46263;44.726;10.396;2024-03-22T11:10:52;100991.63;;;19.86;75.94
60417;BME280;46263;44.726;10.396;2024-03-22T11:13:19;100982.53;;;19.87;76.42
60417;BME280;46263;44.726;10.396;2024-03-22T11:15:47;100989.34;;;19.92;77.27
60417;BME280;46263;44.726;10.396;2024-03-22T11:18:13;100987.63;;;19.89;74.80
60417;BME280;46263;44.726;10.396;2024-03-22T11:20:39;100983.66;;;19.92;75.23
60417;BME280;46263;44.726;10.396;2024-03-22T11:23:04;100974.03;;;19.95;76.28
60417;BME280;46263;44.726;10.396;2024-03-22T11:25:33;100977.75;;;20.04;76.36
60417;BME280;46263;44.726;10.396;2024-03-22T11:27:59;100970.94;;;20.07;75.94
60417;BME280;46263;44.726;10.396;2024-03-22T11:30:32;100971.47;;;20.13;75.75
60417;BME280;46263;44.726;10.396;2024-03-22T11:33:04;100971.84;;;20.17;74.67
60417;BME280;46263;44.726;10.396;2024-03-22T11:35:31;100960.66;;;20.19;75.13
60417;BME280;46263;44.726;10.396;2024-03-22T11:37:57;100960.44;;;20.25;74.74
60417;BME280;46263;44.726;10.396;2024-03-22T11:40:27;100950.19;;;20.29;76.02
60417;BME280;46263;44.726;10.396;2024-03-22T11:42:56;100944.19;;;20.25;72.50
60417;BME280;46263;44.726;10.396;2024-03-22T11:45:23;100946.81;;;20.31;73.93
60417;BME280;46263;44.726;10.396;2024-03-22T11:47:49;100938.41;;;20.40;74.70
60417;BME280;46263;44.726;10.396;2024-03-22T11:50:15;100939.09;;;20.48;73.68
60417;BME280;46263;44.726;10.396;2024-03-22T11:52:41;100928.66;;;20.51;73.10
60417;BME280;46263;44.726;10.396;2024-03-22T11:55:07;100929.59;;;20.53;73.46
60417;BME280;46263;44.726;10.396;2024-03-22T11:57:33;100921.94;;;20.63;73.80
60417;BME280;46263;44.726;10.396;2024-03-22T11:59:59;100932.16;;;20.66;71.65
60417;BME280;46263;44.726;10.396;2024-03-22T12:02:25;100924.91;;;20.73;72.14
60417;BME280;46263;44.726;10.396;2024-03-22T12:04:51;100924.50;;;20.76;70.39
60417;BME280;46263;44.726;10.396;2024-03-22T12:07:17;100919.38;;;20.82;69.59
60417;BME280;46263;44.726;10.396;2024-03-22T12:09:46;100909.66;;;20.85;67.14
60417;BME280;46263;44.726;10.396;2024-03-22T12:12:12;100911.19;;;20.86;67.14
60417;BME280;46263;44.726;10.396;2024-03-22T12:14:39;100903.50;;;20.96;68.26
60417;BME280;46263;44.726;10.396;2024-03-22T12:17:05;100899.34;;;20.97;67.29
60417;BME280;46263;44.726;10.396;2024-03-22T12:19:31;100899.25;;;21.04;69.21
60417;BME280;46263;44.726;10.396;2024-03-22T12:21:57;100888.22;;;21.08;69.16
60417;BME280;46263;44.726;10.396;2024-03-22T12:24:26;100884.38;;;21.13;66.79
60417;BME280;46263;44.726;10.396;2024-03-22T12:26:53;100887.16;;;21.21;67.06
60417;BME280;46263;44.726;10.396;2024-03-22T12:31:44;100880.81;;;21.30;63.99
60417;BME280;46263;44.726;10.396;2024-03-22T12:34:10;100878.47;;;21.36;65.08
60417;BME280;46263;44.726;10.396;2024-03-22T12:36:35;100887.16;;;21.38;63.96